Time;durP1;ratioP1;P1;durP2;ratioP2;P2;SDS_P1;SDS_P2;PMS_P1;PMS_P2;Temp;Humidity;BMP_temperature;BMP_pressure;BME280_temperature;BME280_humidity;BME280_pressure;Samples;Min_cycle;Max_cycle;Signal;HPM_P1;HPM_P2
2024/01/29 00:00:28;;;;;;;12.27;3.93;;;;;;;11.57;82.98;101111.38;5069128;28;20048;-75
2024/01/29 00:02:54;;;;;;;12.45;4.18;;;;;;;11.61;82.73;101125.47;5069072;28;20044;-77
2024/01/29 00:05:19;;;;;;;11.93;4.07;;;;;;;11.61;82.86;101112.28;5068841;28;20024;-74
2024/01/29 00:07:45;;;;;;;11.82;4.35;;;;;;;11.57;82.59;101118.44;5087869;28;20020;-73
2024/01/29 00:10:11;;;;;;;13.20;3.73;;;;;;;11.51;82.96;101113.13;5089279;28;20443;-73
2024/01/29 00:12:36;;;;;;;14.13;4.37;;;;;;;11.56;82.67;101111.38;5089394;28;20032;-75
2024/01/29 00:15:02;;;;;;;13.10;4.37;;;;;;;11.55;82.44;101115.75;5089282;28;20905;-75
2024/01/29 00:17:27;;;;;;;10.68;4.18;;;;;;;11.54;82.49;101105.22;5056803;28;20518;-75
2024/01/29 00:19:53;;;;;;;14.00;4.13;;;;;;;11.52;83.12;101113.13;5051228;28;20089;-75
2024/01/29 00:22:18;;;;;;;10.93;3.83;;;;;;;11.55;82.70;101115.75;5069250;28;20519;-74
2024/01/29 00:24:44;;;;;;;14.10;4.90;;;;;;;11.54;82.45;101105.22;5074824;28;20078;-73
2024/01/29 00:27:09;;;;;;;15.70;4.47;;;;;;;11.54;82.60;101113.13;5070400;28;20024;-74
2024/01/29 00:29:34;;;;;;;14.60;4.50;;;;;;;11.54;82.90;101113.13;5070769;28;20501;-75
2024/01/29 00:32:00;;;;;;;10.17;3.97;;;;;;;11.49;82.66;101111.34;5072612;28;20051;-74
2024/01/29 00:34:25;;;;;;;16.20;5.07;;;;;;;11.53;82.72;101111.38;5072586;28;20453;-75
2024/01/29 00:36:50;;;;;;;13.07;4.30;;;;;;;11.55;82.57;101104.34;5072452;28;20028;-75
2024/01/29 00:39:16;;;;;;;13.57;4.53;;;;;;;11.55;82.19;101099.94;5072687;28;20028;-74
2024/01/29 00:41:41;;;;;;;11.10;4.00;;;;;;;11.54;82.49;101108.72;5072697;28;20263;-74
2024/01/29 00:44:07;;;;;;;13.70;4.10;;;;;;;11.54;82.47;101118.41;5072520;28;20493;-73
2024/01/29 00:46:32;;;;;;;15.60;3.90;;;;;;;11.51;82.45;101114.00;5072522;28;20035;-74
2024/01/29 00:48:58;;;;;;;15.97;4.30;;;;;;;11.54;82.45;101113.13;5072193;28;20086;-74
2024/01/29 00:51:23;;;;;;;11.18;4.10;;;;;;;11.51;82.24;101121.03;5072054;28;20561;-74
2024/01/29 00:53:49;;;;;;;13.50;4.17;;;;;;;11.49;82.27;101115.75;5072133;28;20486;-74
2024/01/29 00:56:14;;;;;;;11.63;4.00;;;;;;;11.47;82.56;101115.75;5054421;28;20024;-73
2024/01/29 00:58:43;;;;;;;13.32;4.55;;;;;;;11.51;82.52;101123.66;5072174;28;20025;-74
2024/01/29 01:01:09;;;;;;;13.87;4.00;;;;;;;11.50;82.18;101117.50;5071901;28;20049;-73
2024/01/29 01:03:34;;;;;;;13.18;3.88;;;;;;;11.48;82.11;101116.63;5072106;28;20540;-74
2024/01/29 01:05:59;;;;;;;11.63;3.63;;;;;;;11.48;82.42;101122.78;5072063;28;20064;-74
2024/01/29 01:08:25;;;;;;;14.00;3.90;;;;;;;11.45;82.42;101104.31;5069879;28;20082;-74
2024/01/29 01:10:50;;;;;;;10.25;3.92;;;;;;;11.46;82.50;101110.44;5092194;28;20027;-75
2024/01/29 01:13:16;;;;;;;13.27;3.57;;;;;;;11.45;82.47;101106.94;5081356;28;20047;-73
2024/01/29 01:15:41;;;;;;;14.37;4.17;;;;;;;11.43;82.26;101113.06;5071729;28;20032;-75
2024/01/29 01:18:06;;;;;;;13.77;3.77;;;;;;;11.38;82.65;101113.03;5054091;28;20025;-73
2024/01/29 01:20:32;;;;;;;10.93;3.83;;;;;;;11.34;82.63;101106.88;5071965;28;20029;-74
2024/01/29 01:22:57;;;;;;;11.65;4.53;;;;;;;11.37;82.83;101106.00;5071791;28;20056;-74
2024/01/29 01:25:23;;;;;;;13.77;4.43;;;;;;;11.42;82.40;101109.53;5079245;28;20021;-75
2024/01/29 01:27:53;;;;;;;11.50;4.27;;;;;;;11.38;82.50;101107.75;5071391;28;20029;-74
2024/01/29 01:30:18;;;;;;;17.58;4.22;;;;;;;11.38;82.69;101122.72;5071095;28;20055;-74
2024/01/29 01:32:44;;;;;;;13.13;4.03;;;;;;;11.36;82.77;101114.78;5071440;28;20611;-73
2024/01/29 01:35:11;;;;;;;12.40;4.40;;;;;;;11.37;82.28;101116.53;5071704;28;20085;-74
2024/01/29 01:37:36;;;;;;;14.90;4.20;;;;;;;11.38;82.55;101120.09;5071539;28;20052;-73
2024/01/29 01:40:04;;;;;;;13.77;4.40;;;;;;;11.36;82.66;101106.00;5070713;28;20481;-73
2024/01/29 01:42:30;;;;;;;11.27;4.10;;;;;;;11.37;82.64;101113.03;5071602;28;20029;-74
2024/01/29 01:44:55;;;;;;;13.75;4.10;;;;;;;11.35;82.73;101134.13;5071154;28;20450;-74
2024/01/29 01:47:21;;;;;;;16.33;4.53;;;;;;;11.38;82.73;101139.41;5070917;28;20024;-75
2024/01/29 01:49:47;;;;;;;15.40;4.90;;;;;;;11.40;82.66;101128.88;5071126;28;20476;-74
2024/01/29 01:52:12;;;;;;;13.07;3.97;;;;;;;11.38;82.91;101149.94;5088108;28;20487;-74
2024/01/29 01:54:39;;;;;;;15.20;4.50;;;;;;;11.44;82.50;101128.88;5091316;28;20020;-76
2024/01/29 01:57:06;;;;;;;17.80;4.47;;;;;;;11.44;83.05;101128.03;5090375;28;20126;-73
2024/01/29 01:59:34;;;;;;;12.20;4.47;;;;;;;11.49;82.57;101134.19;5071039;28;20056;-75
2024/01/29 02:02:00;;;;;;;14.68;4.72;;;;;;;11.45;82.76;101140.34;5070525;28;20556;-74
2024/01/29 02:04:25;;;;;;;16.30;4.05;;;;;;;11.52;83.18;101138.63;5070923;28;20028;-74
2024/01/29 02:06:51;;;;;;;12.57;3.73;;;;;;;11.53;82.87;101130.69;5073942;28;20519;-74
2024/01/29 02:09:17;;;;;;;13.43;3.88;;;;;;;11.55;82.90;101109.63;5082087;28;20016;-74
2024/01/29 02:11:43;;;;;;;13.30;3.70;;;;;;;11.55;82.73;101125.44;5070806;28;20093;-74
2024/01/29 02:14:09;;;;;;;15.10;3.63;;;;;;;11.54;82.89;101121.06;5070674;28;20259;-73
2024/01/29 02:16:34;;;;;;;11.98;3.92;;;;;;;11.53;82.82;101119.28;5070645;28;20077;-74
2024/01/29 02:19:03;;;;;;;15.67;3.43;;;;;;;11.53;82.43;101111.38;5070836;28;20043;-74
2024/01/29 02:21:30;;;;;;;11.25;4.00;;;;;;;11.49;82.59;101111.34;5070865;28;20020;-73
2024/01/29 02:23:55;;;;;;;10.37;3.80;;;;;;;11.50;82.84;101114.88;5069548;28;20115;-74
2024/01/29 02:26:20;;;;;;;13.90;4.00;;;;;;;11.47;82.53;101107.84;5078989;28;20091;-74
2024/01/29 02:28:46;;;;;;;11.13;3.80;;;;;;;11.46;82.34;101108.72;5070354;28;20123;-74
2024/01/29 02:31:11;;;;;;;19.30;4.37;;;;;;;11.46;82.32;101107.81;5070650;28;20027;-75
2024/01/29 02:33:37;;;;;;;12.63;4.63;;;;;;;11.43;82.31;101103.38;5071237;28;20031;-75
2024/01/29 02:36:02;;;;;;;11.00;3.87;;;;;;;11.46;82.38;101103.44;5070589;28;20024;-73
2024/01/29 02:38:28;;;;;;;14.00;4.07;;;;;;;11.44;82.44;101099.88;5070507;28;20549;-75
2024/01/29 02:40:53;;;;;;;12.80;3.70;;;;;;;11.44;82.26;101093.72;5070397;28;20021;-74
2024/01/29 02:43:18;;;;;;;15.40;3.77;;;;;;;11.47;82.48;101102.56;5070434;28;20495;-74
2024/01/29 02:45:44;;;;;;;12.57;3.70;;;;;;;11.51;82.56;101098.16;5069867;28;20024;-74
2024/01/29 02:48:09;;;;;;;12.97;3.30;;;;;;;11.50;82.54;101101.69;5070274;28;20294;-74
2024/01/29 02:50:35;;;;;;;14.40;3.50;;;;;;;11.53;82.66;101085.88;5073311;28;20020;-76
2024/01/29 02:53:00;;;;;;;12.13;3.57;;;;;;;11.56;82.95;101100.84;5090214;28;20020;-74
2024/01/29 02:55:25;;;;;;;12.93;3.97;;;;;;;11.61;82.92;101088.53;5090249;28;20050;-74
2024/01/29 02:57:51;;;;;;;12.35;3.72;;;;;;;11.58;83.17;101085.91;5083916;28;20085;-74
2024/01/29 03:00:16;;;;;;;16.90;3.50;;;;;;;11.62;83.40;101079.75;5069805;28;20044;-74
2024/01/29 03:02:42;;;;;;;14.10;3.50;;;;;;;11.62;83.09;101090.31;5069926;28;20032;-75
2024/01/29 03:05:08;;;;;;;15.17;3.37;;;;;;;11.56;83.54;101090.28;5069740;28;20031;-74
2024/01/29 03:07:33;;;;;;;16.33;3.80;;;;;;;11.63;83.13;101089.44;5078942;28;20024;-74
2024/01/29 03:09:58;;;;;;;19.27;4.13;;;;;;;11.63;83.29;101087.69;5090032;28;20195;-73
2024/01/29 03:12:24;;;;;;;15.98;4.75;;;;;;;11.63;83.26;101076.25;5089984;28;20051;-74
2024/01/29 03:14:51;;;;;;;11.20;3.10;;;;;;;11.62;82.86;101090.31;5089591;28;20025;-74
2024/01/29 03:17:16;;;;;;;12.32;3.63;;;;;;;11.62;82.93;101095.59;5089994;28;20096;-74
2024/01/29 03:19:41;;;;;;;10.47;3.30;;;;;;;11.60;83.07;101089.41;5089993;28;20468;-75
2024/01/29 03:22:07;;;;;;;14.47;3.20;;;;;;;11.58;83.16;101092.06;5089986;28;20543;-74
2024/01/29 03:24:32;;;;;;;11.70;3.07;;;;;;;11.60;82.96;101092.06;5087820;28;20036;-73
2024/01/29 03:26:58;;;;;;;13.90;3.38;;;;;;;11.60;82.97;101092.06;5072571;28;20508;-74
2024/01/29 03:29:23;;;;;;;13.13;3.50;;;;;;;11.57;82.97;101094.69;5068836;28;20159;-74
2024/01/29 03:31:48;;;;;;;13.10;3.63;;;;;;;11.60;83.13;101094.69;5069419;28;20050;-74
2024/01/29 03:34:14;;;;;;;12.73;3.47;;;;;;;11.56;83.32;101098.19;5069401;28;20476;-74
2024/01/29 03:36:39;;;;;;;13.50;3.77;;;;;;;11.58;83.08;101094.72;5069374;28;20057;-74
2024/01/29 03:39:04;;;;;;;11.50;3.30;;;;;;;11.53;83.08;101090.28;5069621;28;20499;-75
2024/01/29 03:41:30;;;;;;;14.27;3.60;;;;;;;11.53;83.32;101095.56;5069302;28;20307;-73
2024/01/29 03:43:55;;;;;;;11.53;3.37;;;;;;;11.55;82.74;101088.53;5069481;28;20028;-74
2024/01/29 03:46:21;;;;;;;10.57;3.47;;;;;;;11.51;82.89;101087.59;5069267;28;20582;-74
2024/01/29 03:48:46;;;;;;;19.37;3.80;;;;;;;11.49;83.07;101090.25;5069412;28;20029;-74
2024/01/29 03:51:11;;;;;;;13.02;3.90;;;;;;;11.48;83.32;101087.59;5077690;28;20122;-73
2024/01/29 03:53:37;;;;;;;18.30;3.57;;;;;;;11.48;83.51;101092.88;5089438;28;20034;-74
2024/01/29 03:56:02;;;;;;;16.70;3.63;;;;;;;11.52;83.21;101091.16;5089595;28;20027;-74
2024/01/29 03:58:28;;;;;;;13.07;3.50;;;;;;;11.56;83.14;101077.97;5076945;28;20029;-74
2024/01/29 04:00:53;;;;;;;12.65;3.53;;;;;;;11.58;83.16;101077.97;5050632;28;20040;-74
2024/01/29 04:03:19;;;;;;;15.67;3.90;;;;;;;11.59;82.96;101092.94;5069618;28;20504;-75
2024/01/29 04:05:45;;;;;;;15.57;3.20;;;;;;;11.63;83.10;101078.88;5073412;28;20025;-74
2024/01/29 04:08:10;;;;;;;10.20;2.97;;;;;;;11.63;83.37;101086.78;5087254;28;20336;-74
2024/01/29 04:10:35;;;;;;;11.60;3.20;;;;;;;11.66;83.02;101089.44;5093291;28;20426;-75
2024/01/29 04:13:01;;;;;;;13.83;3.50;;;;;;;11.62;83.43;101100.84;5091812;28;20103;-74
2024/01/29 04:15:26;;;;;;;16.08;3.33;;;;;;;11.67;83.01;101085.94;5072986;28;20029;-75
2024/01/29 04:17:52;;;;;;;17.23;3.73;;;;;;;11.68;83.25;101082.41;5072979;28;20409;-75
2024/01/29 04:20:17;;;;;;;11.90;4.00;;;;;;;11.71;83.08;101085.09;5073146;28;20383;-75
2024/01/29 04:22:43;;;;;;;14.97;2.97;;;;;;;11.74;83.10;101100.03;5073024;28;20036;-74
2024/01/29 04:25:08;;;;;;;15.68;3.05;;;;;;;11.76;83.06;101093.00;5080215;28;20036;-74
2024/01/29 04:27:34;;;;;;;17.13;3.37;;;;;;;11.75;82.78;101096.53;5072469;28;20082;-74
2024/01/29 04:30:01;;;;;;;15.38;3.50;;;;;;;11.73;82.93;101088.63;5072729;28;20024;-74
2024/01/29 04:32:26;;;;;;;11.50;3.30;;;;;;;11.74;83.08;101085.09;5072589;28;20063;-74
2024/01/29 04:34:52;;;;;;;16.50;3.25;;;;;;;11.74;82.77;101086.84;5072687;28;20036;-74
2024/01/29 04:37:17;;;;;;;13.70;3.30;;;;;;;11.68;82.86;101087.69;5072432;28;20081;-74
2024/01/29 04:39:43;;;;;;;15.00;3.27;;;;;;;11.73;82.86;101087.72;5072596;28;20017;-74
2024/01/29 04:42:09;;;;;;;15.77;3.17;;;;;;;11.71;82.66;101087.72;5072709;28;20523;-74
2024/01/29 04:44:34;;;;;;;13.45;3.20;;;;;;;11.71;82.61;101087.72;5072470;28;20557;-74
2024/01/29 04:47:00;;;;;;;14.77;3.87;;;;;;;11.67;82.94;101101.75;5072610;28;20028;-73
2024/01/29 04:49:25;;;;;;;12.13;4.07;;;;;;;11.71;83.05;101098.28;5072420;28;20025;-73
2024/01/29 04:51:51;;;;;;;11.33;3.50;;;;;;;11.72;83.07;101093.88;5086228;28;20346;-73
2024/01/29 04:54:16;;;;;;;17.48;3.17;;;;;;;11.76;82.85;101088.63;5092636;28;20032;-75
2024/01/29 04:56:42;;;;;;;14.67;3.67;;;;;;;11.74;82.72;101089.47;5092389;28;20032;-74
2024/01/29 04:59:07;;;;;;;12.90;3.27;;;;;;;11.77;82.54;101086.84;5074248;28;20171;-73
2024/01/29 05:01:33;;;;;;;13.27;3.20;;;;;;;11.81;82.90;101090.41;5072181;28;20619;-74
2024/01/29 05:03:58;;;;;;;13.00;3.50;;;;;;;11.84;82.44;101093.94;5072087;28;20488;-74
2024/01/29 05:06:24;;;;;;;12.73;3.50;;;;;;;11.85;82.57;101086.88;5072290;28;20028;-74
2024/01/29 05:08:49;;;;;;;10.97;3.03;;;;;;;11.79;82.82;101087.72;5091672;28;20030;-74
2024/01/29 05:11:15;;;;;;;14.40;3.40;;;;;;;11.80;82.93;101086.84;5073935;28;20044;-74
2024/01/29 05:13:40;;;;;;;9.63;3.23;;;;;;;11.82;82.65;101076.31;5092183;28;20729;-74
2024/01/29 05:16:06;;;;;;;17.27;3.40;;;;;;;11.80;82.74;101078.94;5090701;28;20154;-74
2024/01/29 05:18:32;;;;;;;12.93;3.35;;;;;;;11.78;82.76;101076.31;5092265;28;20069;-75
2024/01/29 05:20:58;;;;;;;10.65;2.53;;;;;;;11.78;82.60;101084.22;5092119;28;20024;-75
2024/01/29 05:23:23;;;;;;;17.03;4.10;;;;;;;11.74;82.75;101069.28;5092068;28;20525;-74
2024/01/29 05:25:49;;;;;;;17.43;3.10;;;;;;;11.77;82.60;101082.47;5082709;28;20681;-73
2024/01/29 05:28:14;;;;;;;14.52;3.17;;;;;;;11.74;82.78;101079.81;5072331;28;20025;-73
2024/01/29 05:30:40;;;;;;;16.63;3.13;;;;;;;11.74;82.76;101081.56;5071176;28;20158;-74
2024/01/29 05:33:05;;;;;;;14.00;3.13;;;;;;;11.68;83.25;101085.06;5071451;28;20032;-74
2024/01/29 05:35:30;;;;;;;11.00;2.90;;;;;;;11.68;83.01;101078.91;5071316;28;20024;-74
2024/01/29 05:37:56;;;;;;;14.43;3.10;;;;;;;11.68;82.65;101085.06;5071495;28;20054;-74
2024/01/29 05:40:21;;;;;;;19.83;3.40;;;;;;;11.67;82.82;101082.41;5071588;28;20650;-75
2024/01/29 05:42:52;;;;;;;15.63;3.87;;;;;;;11.63;83.10;101082.41;5071521;28;20036;-74
2024/01/29 05:45:17;;;;;;;14.02;4.00;;;;;;;11.60;82.94;101092.06;5071411;28;20032;-74
2024/01/29 05:47:43;;;;;;;18.57;3.33;;;;;;;11.62;82.74;101085.03;5053464;28;20028;-73
2024/01/29 05:50:09;;;;;;;13.63;3.77;;;;;;;11.61;82.86;101088.53;5071290;28;20033;-73
2024/01/29 05:52:35;;;;;;;14.20;3.30;;;;;;;11.60;82.76;101087.69;5091086;28;20028;-73
2024/01/29 05:55:00;;;;;;;13.43;3.45;;;;;;;11.58;83.16;101088.53;5076342;28;20037;-74
2024/01/29 05:57:27;;;;;;;20.33;2.97;;;;;;;11.60;82.60;101092.06;5070937;28;20113;-74
2024/01/29 05:59:53;;;;;;;14.63;2.90;;;;;;;11.59;83.02;101090.28;5070621;28;20035;-74
2024/01/29 06:02:19;;;;;;;23.02;3.85;;;;;;;11.55;82.71;101099.06;5071209;28;20032;-74
2024/01/29 06:04:44;;;;;;;18.67;4.20;;;;;;;11.56;82.56;101100.84;5070936;28;20070;-74
2024/01/29 06:07:10;;;;;;;14.13;3.30;;;;;;;11.53;82.49;101103.47;5076645;28;20384;-73
2024/01/29 06:09:35;;;;;;;10.83;2.90;;;;;;;11.53;82.75;101111.38;5091251;28;20089;-73
2024/01/29 06:12:00;;;;;;;16.23;3.35;;;;;;;11.49;82.70;101111.34;5091027;28;20035;-74
2024/01/29 06:14:26;;;;;;;13.60;3.00;;;;;;;11.47;82.47;101110.47;5090660;28;20021;-73
2024/01/29 06:16:55;;;;;;;16.70;4.10;;;;;;;11.44;82.60;101107.78;5090826;28;20020;-75
2024/01/29 06:19:20;;;;;;;13.52;3.38;;;;;;;11.43;82.72;101116.56;5073010;28;20069;-75
2024/01/29 06:21:45;;;;;;;15.00;3.67;;;;;;;11.44;82.88;101122.75;5091097;28;20028;-75
2024/01/29 06:24:11;;;;;;;10.50;2.65;;;;;;;11.45;82.88;101135.06;5088883;28;20028;-75
2024/01/29 06:26:37;;;;;;;15.30;3.40;;;;;;;11.46;82.45;101126.28;5076500;28;20643;-75
2024/01/29 06:29:03;;;;;;;14.50;3.05;;;;;;;11.46;82.40;101137.72;5070385;28;20420;-76
2024/01/29 06:31:29;;;;;;;13.93;3.00;;;;;;;11.46;82.64;101135.09;5070373;28;20040;-74
2024/01/29 06:33:54;;;;;;;19.17;3.80;;;;;;;11.46;82.60;101127.16;5070523;28;20361;-74
2024/01/29 06:36:20;;;;;;;17.80;3.33;;;;;;;11.47;82.58;101126.28;5070341;28;20031;-75
2024/01/29 06:38:46;;;;;;;14.10;3.57;;;;;;;11.45;82.88;101122.78;5070157;28;20040;-74
2024/01/29 06:41:22;;;;;;;18.73;4.40;;;;;;;11.46;82.60;101124.53;5070601;28;20062;-75
2024/01/29 06:43:48;;;;;;;18.20;3.15;;;;;;;11.44;82.50;101134.16;5070421;28;20036;-74
2024/01/29 06:46:13;;;;;;;15.85;3.25;;;;;;;11.43;82.79;101127.13;5070214;28;20032;-74
2024/01/29 06:48:39;;;;;;;18.90;3.37;;;;;;;11.43;82.88;101118.34;5052406;28;20047;-74
2024/01/29 06:51:04;;;;;;;15.03;3.80;;;;;;;11.41;82.90;101126.22;5077518;28;20030;-76
2024/01/29 06:53:33;;;;;;;14.40;3.30;;;;;;;11.46;82.67;101136.81;5090344;28;20491;-75
2024/01/29 06:55:59;;;;;;;15.80;3.20;;;;;;;11.43;82.50;101124.50;5090353;28;20036;-75
2024/01/29 06:58:27;;;;;;;17.55;3.72;;;;;;;11.41;83.12;101123.59;5087677;28;20507;-75
2024/01/29 07:00:54;;;;;;;17.75;3.38;;;;;;;11.42;83.14;101120.09;5069462;28;20090;-75
2024/01/29 07:03:20;;;;;;;19.05;3.10;;;;;;;11.42;83.15;101109.53;5070046;28;20109;-76
2024/01/29 07:05:50;;;;;;;14.77;3.40;;;;;;;11.45;82.78;101120.13;5068365;28;20052;-77
2024/01/29 07:08:16;;;;;;;11.40;2.83;;;;;;;11.43;82.94;101124.50;5066673;28;20417;-77
2024/01/29 07:10:41;;;;;;;19.63;3.42;;;;;;;11.41;83.05;101126.22;5068855;28;20108;-76
2024/01/29 07:13:07;;;;;;;15.50;2.73;;;;;;;11.45;82.88;101117.50;5068620;28;20032;-76
2024/01/29 07:15:33;;;;;;;15.85;3.13;;;;;;;11.46;82.81;101135.09;5073529;28;20107;-78
2024/01/29 07:17:58;;;;;;;13.50;2.77;;;;;;;11.43;83.22;101127.13;5071563;28;20112;-76
2024/01/29 07:20:24;;;;;;;14.23;3.60;;;;;;;11.44;83.32;101128.03;5070801;28;20082;-75
2024/01/29 07:22:51;;;;;;;14.77;3.40;;;;;;;11.42;83.48;101151.72;5068686;28;20032;-76
2024/01/29 07:25:16;;;;;;;14.48;3.92;;;;;;;11.45;83.46;101132.41;5069152;28;20126;-75
2024/01/29 07:27:42;;;;;;;11.77;3.77;;;;;;;11.49;83.17;101137.72;5068417;28;20036;-76
2024/01/29 07:30:07;;;;;;;9.40;2.90;;;;;;;11.49;83.00;101136.84;5049933;28;20392;-74
2024/01/29 07:32:33;;;;;;;15.88;3.42;;;;;;;11.51;82.93;101134.22;5068537;28;20035;-77
2024/01/29 07:35:00;;;;;;;15.13;3.27;;;;;;;11.52;83.23;101143.91;5051380;28;20041;-76
2024/01/29 07:37:26;;;;;;;17.90;3.08;;;;;;;11.55;83.11;101136.00;5066195;28;20021;-74
2024/01/29 07:39:51;;;;;;;17.73;3.43;;;;;;;11.57;83.13;101143.03;5061422;28;20039;-74
2024/01/29 07:42:17;;;;;;;16.47;3.20;;;;;;;11.61;83.07;101147.47;5067579;28;20657;-75
2024/01/29 07:44:43;;;;;;;15.98;3.88;;;;;;;11.66;82.66;101129.00;5067275;28;20036;-75
2024/01/29 07:47:08;;;;;;;16.57;3.33;;;;;;;11.67;82.88;101143.97;5068427;28;20107;-77
2024/01/29 07:49:33;;;;;;;17.23;3.23;;;;;;;11.66;82.73;101139.56;5068483;28;20119;-78
2024/01/29 07:51:59;;;;;;;13.60;3.47;;;;;;;11.70;82.54;101151.03;5068965;28;20640;-76
2024/01/29 07:54:24;;;;;;;13.30;3.23;;;;;;;11.67;83.11;101145.75;5068723;28;20400;-76
2024/01/29 07:56:49;;;;;;;17.07;3.10;;;;;;;11.70;82.70;101151.03;5068567;28;20060;-76
2024/01/29 07:59:15;;;;;;;13.23;3.10;;;;;;;11.72;82.75;101133.44;5066827;28;20031;-77
2024/01/29 08:01:44;;;;;;;18.00;3.23;;;;;;;11.72;82.88;101158.09;5071557;28;20079;-76
2024/01/29 08:04:09;;;;;;;13.10;2.90;;;;;;;11.79;82.67;101140.50;5066208;28;20287;-77
2024/01/29 08:06:35;;;;;;;14.40;3.03;;;;;;;11.84;82.66;101146.72;5065910;28;20676;-76
2024/01/29 08:09:00;;;;;;;11.67;3.00;;;;;;;11.88;82.40;101142.31;5070414;28;20035;-75
2024/01/29 08:11:26;;;;;;;9.90;2.60;;;;;;;11.92;82.37;101152.91;5067120;28;20099;-74
2024/01/29 08:13:51;;;;;;;19.17;3.67;;;;;;;11.98;82.04;101157.34;5067840;28;20036;-74
2024/01/29 08:16:16;;;;;;;14.67;3.37;;;;;;;11.97;82.04;101150.31;5063478;28;20528;-75
2024/01/29 08:18:42;;;;;;;17.15;3.05;;;;;;;11.99;82.00;101148.53;5068218;28;20035;-74
2024/01/29 08:21:07;;;;;;;11.77;3.00;;;;;;;12.11;81.62;101147.75;5067416;28;20151;-74
2024/01/29 08:23:33;;;;;;;11.37;3.00;;;;;;;12.15;81.34;101153.91;5067954;28;20063;-75
2024/01/29 08:25:58;;;;;;;16.50;3.47;;;;;;;12.22;81.55;101155.72;5049635;28;20037;-74
2024/01/29 08:28:23;;;;;;;19.80;3.10;;;;;;;12.35;81.01;101143.41;5047596;28;20116;-75
2024/01/29 08:30:49;;;;;;;18.27;3.27;;;;;;;12.48;80.66;101153.13;5047263;28;20037;-75
2024/01/29 08:33:17;;;;;;;16.10;3.70;;;;;;;12.65;80.17;101149.66;5063806;28;20028;-76
2024/01/29 08:35:42;;;;;;;17.33;3.20;;;;;;;12.71;79.94;101154.06;5065554;28;20025;-76
2024/01/29 08:38:08;;;;;;;15.77;3.60;;;;;;;12.79;79.38;101152.31;5067887;28;20366;-76
2024/01/29 08:40:33;;;;;;;11.52;3.05;;;;;;;12.79;78.59;101147.03;5067455;28;20476;-75
2024/01/29 08:42:59;;;;;;;13.80;4.47;;;;;;;12.91;78.70;101157.63;5067488;28;20024;-74
2024/01/29 08:45:25;;;;;;;16.77;3.33;;;;;;;12.98;78.50;101169.06;5048494;28;20066;-75
2024/01/29 08:47:50;;;;;;;13.63;2.83;;;;;;;13.01;78.56;101153.19;5067387;28;20032;-75
2024/01/29 08:50:15;;;;;;;13.83;2.90;;;;;;;13.09;78.34;101152.31;5069447;28;20039;-74
2024/01/29 08:52:41;;;;;;;18.33;3.10;;;;;;;13.18;78.10;101162.88;5070446;28;20024;-74
2024/01/29 08:55:07;;;;;;;15.70;2.80;;;;;;;13.12;78.08;101163.75;5071309;28;20397;-75
2024/01/29 08:57:32;;;;;;;12.80;2.50;;;;;;;13.13;78.36;101168.16;5071528;28;20031;-75
2024/01/29 08:59:58;;;;;;;12.33;2.80;;;;;;;13.17;78.59;101167.31;5070658;28;20033;-74
2024/01/29 09:02:27;;;;;;;11.65;2.53;;;;;;;13.27;77.77;101167.28;5070363;28;20664;-75
2024/01/29 09:04:53;;;;;;;13.20;2.97;;;;;;;13.34;77.91;101175.22;5070743;28;20032;-77
2024/01/29 09:07:19;;;;;;;14.57;3.05;;;;;;;13.44;77.76;101173.50;5072105;28;20064;-76
2024/01/29 09:09:46;;;;;;;12.77;2.45;;;;;;;13.54;77.03;101176.13;5075046;28;20052;-75
2024/01/29 09:12:11;;;;;;;12.17;2.40;;;;;;;13.62;76.79;101166.38;5070382;28;20523;-74
2024/01/29 09:14:37;;;;;;;15.43;2.92;;;;;;;13.66;76.95;101173.47;5070980;28;20024;-75
2024/01/29 09:17:05;;;;;;;14.13;3.10;;;;;;;13.65;76.07;101171.69;5070774;28;20031;-75
2024/01/29 09:19:30;;;;;;;17.67;3.13;;;;;;;13.70;75.80;101174.31;5070796;28;20048;-74
2024/01/29 09:21:56;;;;;;;13.93;3.07;;;;;;;13.66;75.79;101178.75;5070710;28;20104;-74
2024/01/29 09:24:21;;;;;;;17.57;3.20;;;;;;;13.68;75.67;101171.69;5071057;28;20036;-75
2024/01/29 09:26:47;;;;;;;10.20;2.70;;;;;;;13.72;75.44;101184.03;5070810;28;20040;-76
2024/01/29 09:29:12;;;;;;;20.30;2.90;;;;;;;13.71;75.35;101173.44;5069847;28;20059;-75
2024/01/29 09:31:38;;;;;;;13.27;2.80;;;;;;;13.73;74.90;101179.59;5070335;28;20115;-75
2024/01/29 09:34:03;;;;;;;14.53;3.10;;;;;;;13.78;74.19;101188.44;5070795;28;20540;-75
2024/01/29 09:36:28;;;;;;;13.10;2.60;;;;;;;13.86;74.24;101183.09;5063456;28;20040;-75
2024/01/29 09:38:54;;;;;;;9.32;2.70;;;;;;;13.85;74.17;101169.00;5070276;28;20056;-75
2024/01/29 09:41:19;;;;;;;13.33;2.70;;;;;;;13.88;74.33;101182.22;5069982;28;20024;-75
2024/01/29 09:43:47;;;;;;;12.07;2.50;;;;;;;13.98;74.13;101192.75;5069096;28;21436;-75
2024/01/29 09:46:16;;;;;;;13.05;2.40;;;;;;;13.99;73.85;101191.91;5052083;28;20420;-77
2024/01/29 09:48:43;;;;;;;13.05;2.47;;;;;;;14.16;73.48;101194.50;5069561;28;20024;-75
2024/01/29 09:51:13;;;;;;;10.07;2.40;;;;;;;14.16;72.81;101195.34;5070095;28;20078;-76
2024/01/29 09:53:39;;;;;;;14.80;2.83;;;;;;;14.23;72.72;101192.66;5069656;28;20032;-74
2024/01/29 09:56:05;;;;;;;9.40;2.10;;;;;;;14.32;72.23;101192.66;5070781;28;20052;-75
2024/01/29 09:58:30;;;;;;;11.88;2.50;;;;;;;14.45;72.58;101196.97;5070461;28;20075;-75
2024/01/29 10:00:58;;;;;;;15.03;2.77;;;;;;;14.59;72.00;101204.88;5068818;28;20097;-74
2024/01/29 10:03:32;;;;;;;11.70;2.75;;;;;;;14.50;70.92;101194.31;5069338;28;20582;-75
2024/01/29 10:05:58;;;;;;;10.38;2.65;;;;;;;14.49;70.92;101193.44;5074050;28;20059;-75
2024/01/29 10:08:24;;;;;;;11.43;2.30;;;;;;;14.53;71.01;101194.28;5071941;28;20513;-76
2024/01/29 10:10:51;;;;;;;12.82;2.58;;;;;;;14.56;70.41;101204.88;5070202;28;20031;-75
2024/01/29 10:13:16;;;;;;;12.73;2.33;;;;;;;14.61;70.66;101202.22;5069749;28;20104;-75
2024/01/29 10:15:43;;;;;;;10.33;2.40;;;;;;;14.64;70.46;101211.03;5070627;28;20016;-76
2024/01/29 10:18:13;;;;;;;13.77;2.55;;;;;;;14.66;69.88;101210.16;5069671;28;20063;-76
2024/01/29 10:20:39;;;;;;;13.40;2.55;;;;;;;14.76;70.28;101207.47;5069026;28;20586;-75
2024/01/29 10:23:04;;;;;;;14.10;2.43;;;;;;;14.81;70.22;101210.06;5069618;28;20025;-75
2024/01/29 10:25:32;;;;;;;10.80;2.30;;;;;;;14.92;70.03;101202.94;5074533;28;20021;-77
2024/01/29 10:28:08;;;;;;;11.32;2.28;;;;;;;15.11;70.22;101194.84;5069192;28;20384;-76
2024/01/29 10:30:34;;;;;;;11.02;2.53;;;;;;;15.27;69.07;101189.38;5069419;28;20036;-76
2024/01/29 10:32:59;;;;;;;13.53;2.60;;;;;;;15.42;69.42;101194.56;5068857;28;20024;-76
2024/01/29 10:35:25;;;;;;;11.10;2.50;;;;;;;15.49;68.22;101193.59;5069076;28;20407;-77
2024/01/29 10:37:50;;;;;;;8.70;2.40;;;;;;;15.49;67.89;101187.44;5069322;28;20436;-76
2024/01/29 10:40:20;;;;;;;10.33;2.17;;;;;;;15.34;67.74;101183.16;5070009;28;20543;-76
2024/01/29 10:42:49;;;;;;;14.50;2.10;;;;;;;15.35;67.79;101185.78;5070082;28;20058;-77
2024/01/29 10:45:19;;;;;;;16.40;2.65;;;;;;;15.39;67.40;101185.75;5068654;28;20537;-76
2024/01/29 10:47:50;;;;;;;10.30;1.73;;;;;;;15.26;67.77;101193.84;5069211;28;20028;-76
2024/01/29 10:50:19;;;;;;;13.57;2.27;;;;;;;15.28;67.60;101177.88;5069960;28;20107;-78
2024/01/29 10:52:47;;;;;;;10.88;2.60;;;;;;;15.17;66.65;101186.81;5068857;28;20431;-76
2024/01/29 10:55:15;;;;;;;11.75;2.20;;;;;;;15.15;66.39;101190.38;5068410;28;20029;-78
2024/01/29 10:57:46;;;;;;;15.50;3.20;;;;;;;15.11;66.09;101208.09;5069042;28;20519;-76
2024/01/29 11:00:14;;;;;;;11.02;2.22;;;;;;;15.11;66.50;101183.34;5069187;28;20094;-76
2024/01/29 11:02:40;;;;;;;9.77;2.10;;;;;;;15.09;66.97;101186.03;5069599;28;20103;-76
2024/01/29 11:05:08;;;;;;;10.95;2.30;;;;;;;15.20;66.65;101176.19;5051502;28;20696;-76
2024/01/29 11:07:35;;;;;;;12.93;2.70;;;;;;;15.28;66.45;101180.53;5080548;28;20028;-76
2024/01/29 11:10:14;;;;;;;11.75;1.90;;;;;;;15.34;66.31;101177.84;5071474;28;20025;-76